Terminal Aerodrome Forecast
Issued by NWS Sterling, VA

Current Version | Previous Version | Text Only | Print | Product List | Glossary Off
Versions: 1 2 3 4 5 6 7 8 9 10 11 12 13 14 15 16 17 18 19 20 21 22 23

195
FTUS41 KLWX 111430 AAA
TAFDCA
TAF AMD
KDCA 111430Z 1115/1218 21006KT P6SM FEW060 SCT180
     FM112300 15005KT P6SM BKN120
     FM121400 22008KT P6SM BKN060
     FM121700 27012G20KT P6SM BKN050=

USA.gov is the U.S. government's official web portal to all federal, state and local government web resources and services.